< < Back
Terminal Aerodrome Forecast


Current Version              Previous Versions:   1  2  3  4  5  6  7  8  9  

Terminal Aerodrome Forecast

308
FTUS42 KGSP 280814 AAC
TAFAVL
TAF AMD
KAVL 280814Z 2808/2906 00000KT 1/4SM FG OVC001
      TEMPO 2811/2813 1SM BR SCT002 BKN008
     FM281300 VRB03KT P6SM FEW040 SCT250
     FM281600 16006KT P6SM SCT050
     FM290200 17003KT P6SM BKN200=

Latest METAR

368
SAUS70 KWBC 281300 RRE
MTRAVL
METAR KAVL 281254Z 00000KT 10SM SCT045 18/15 A3023 RMK AO2 SLP215
T01780150


USA.gov is the U.S. government's official web portal to all federal, state and local government web resources and services.